Latest Weather Observations for Christmas Creek

IDW60801

Issued at 7:33 pm WST Saturday 27 August 2016 (issued every 30 minutes, with the page automatically refreshed every 10 minutes)

About weather observations | Map of weather stations | Latest weather observations for WA | Other Formats
Station Details ID: 505049 Name: CHRISTMAS CREEK Lat: -22.36 Lon: 119.65 Height: 437.21 m
Data from the previous 72 hours. | See also: Recent months for locations in Western Australia
Date/Time
WST
Temp
°C
App
Temp
°C
Dew
Point
°C
Rel
Hum
%
Delta-T
°C
Wind Press
QNH
hPa
Press
MSL
hPa
Rain since
9am
mm
Dir  Spd
km/h
Gust
km/h
Spd
kts
Gust
kts
27/07:30pm 23.0 19.2 4.0 29 9.5 NNW 13 17 7 9 1012.5 1011.5 0.0
27/07:00pm 23.6 19.3 3.0 26 10.2 NNW 15 19 8 10 1012.1 1011.0 0.0
27/06:30pm 24.4 20.0 2.5 24 10.7 NW 15 20 8 11 1012.0 1010.9 0.0
27/06:00pm 25.3 19.4 1.4 21 11.6 NW 22 30 12 16 1012.0 1010.9 0.0
27/05:30pm 26.2 20.2 0.8 19 12.2 NW 22 32 12 17 1011.7 1010.6 0.0
27/05:00pm 26.9 20.1 0.6 18 12.7 NW 26 39 14 21 1011.6 1010.5 0.0
27/04:30pm 27.2 19.4 -0.8 16 13.2 NW 30 43 16 23 1011.4 1010.3 0.0
27/04:00pm 27.9 20.4 -1.1 15 13.7 NW 28 43 15 23 1011.2 1010.1 0.0
27/03:30pm 28.1 20.5 -1.9 14 14.0 NW 28 41 15 22 1011.3 1010.2 0.0
27/03:00pm 27.9 19.6 -2.0 14 13.9 NW 32 43 17 23 1011.5 1010.4 0.0
27/02:34pm 28.3 20.3 -2.7 13 14.2 NW 30 48 16 26 1011.8 1010.7 0.0
27/02:30pm 28.2 19.8 -2.8 13 14.2 NW 32 48 17 26 1011.6 1010.5 0.0
27/02:08pm 28.2 20.5 -2.8 13 14.2 NW 28 50 15 27 1011.9 1010.8 0.0
27/02:00pm 28.5 20.8 -2.6 13 14.3 NW 28 44 15 24 1012.3 1011.2 0.0
27/01:31pm 27.9 20.2 -3.0 13 14.1 NW 28 61 15 33 1012.5 1011.5 0.0
27/01:30pm 27.7 20.0 -3.2 13 14.0 NW 28 43 15 23 1012.7 1011.7 0.0
27/01:01pm 27.7 20.0 -3.2 13 14.0 NW 28 56 15 30 1013.4 1012.3 0.0
27/01:00pm 27.7 20.1 -2.2 14 13.8 NW 28 56 15 30 1013.4 1012.3 0.0
27/12:56pm 28.0 20.4 -2.0 14 13.9 NNW 28 56 15 30 1013.3 1012.2 0.0
27/12:30pm 28.0 20.8 -2.0 14 13.9 NW 26 43 14 23 1013.7 1012.6 0.0
27/12:00pm 27.0 19.3 -2.7 14 13.5 NW 28 46 15 25 1014.2 1013.1 0.0
27/11:53am 27.4 19.8 -2.4 14 13.7 NW 28 46 15 25 1014.1 1013.0 0.0
27/11:30am 26.6 19.6 -3.1 14 13.4 NW 24 41 13 22 1014.8 1013.8 0.0
27/11:00am 25.8 22.1 -2.8 15 12.8 W 7 26 4 14 1015.3 1014.3 0.0
27/10:30am 24.1 20.2 -1.7 18 11.7 W 9 17 5 9 1016.2 1015.1 0.0
27/10:00am 23.2 19.7 -1.7 19 11.2 WSW 7 13 4 7 1016.6 1015.6 0.0
27/09:30am 22.2 18.7 -1.1 21 10.5 W 7 13 4 7 1016.8 1015.8 0.0
27/09:00am 20.3 17.0 -0.9 24 9.4 WSW 6 9 3 5 1016.9 1015.9 0.0
27/08:30am 18.8 15.9 -1.1 26 8.7 SW 4 7 2 4 1016.7 1015.7 0.0
27/08:00am 16.7 13.1 -1.9 28 7.8 SSW 7 11 4 6 1016.7 1015.7 0.0
27/07:30am 15.0 11.9 -2.9 29 7.3 W 4 6 2 3 1016.2 1015.1 0.0
27/07:00am 13.2 10.0 -3.1 32 6.5 SW 4 7 2 4 1016.1 1015.0 0.0
27/06:30am 12.4 7.4 -4.2 31 6.4 N 13 15 7 8 1015.1 1014.1 0.0
27/06:00am 12.1 7.1 -4.1 32 6.2 N 13 15 7 8 1014.5 1013.5 0.0
27/05:30am 11.0 7.7 -4.2 34 5.8 NE 4 7 2 4 1014.3 1013.2 0.0
27/05:00am 11.8 8.2 -3.9 33 6.0 N 6 7 3 4 1014.2 1013.1 0.0
27/04:30am 11.1 6.9 -3.8 35 5.7 W 9 11 5 6 1014.3 1013.2 0.0
27/04:00am 12.3 8.1 -4.3 31 6.4 NNW 9 11 5 6 1014.3 1013.2 0.0
27/03:30am 13.2 9.3 -4.4 29 6.8 N 7 11 4 6 1014.1 1013.0 0.0
27/03:00am 12.0 9.1 -4.2 32 6.2 NNW 2 4 1 2 1014.6 1013.6 0.0
27/02:30am 12.6 9.3 -4.1 31 6.5 WNW 4 7 2 4 1014.7 1013.7 0.0
27/02:00am 14.5 9.5 -4.2 27 7.4 N 13 15 7 8 1014.9 1013.9 0.0
27/01:30am 13.9 9.7 -4.3 28 7.1 NNE 9 9 5 5 1014.9 1013.9 0.0
27/01:00am 13.9 9.7 -3.8 29 7.0 N 9 11 5 6 1015.4 1014.4 0.0
27/12:30am 14.3 9.7 -3.9 28 7.2 N 11 13 6 7 1015.8 1014.7 0.0
27/12:00am 14.5 10.3 -4.2 27 7.3 N 9 11 5 6 1016.0 1014.9 0.0
 
Date/Time
WST
Temp
°C
App
Temp
°C
Dew
Point
°C
Rel
Hum
%
Delta-T
°C
Wind Press
QNH
hPa
Press
MSL
hPa
Rain since
9am
mm
Dir  Spd
km/h
Gust
km/h
Spd
kts
Gust
kts
26/11:30pm 15.8 11.2 -4.2 25 8.0 N 11 13 6 7 1016.0 1014.9 0.0
26/11:00pm 17.0 11.6 -4.3 23 8.6 NNE 15 17 8 9 1016.1 1015.0 0.0
26/10:30pm 16.4 11.4 -4.2 24 8.3 N 13 15 7 8 1016.6 1015.6 0.0
26/10:00pm 16.9 11.5 -4.3 23 8.5 N 15 17 8 9 1016.6 1015.6 0.0
26/09:30pm 17.4 12.1 -3.9 23 8.7 N 15 15 8 8 1016.7 1015.7 0.0
26/09:00pm 16.9 12.0 -3.8 24 8.4 N 13 15 7 8 1016.9 1015.9 0.0
26/08:30pm 17.7 12.8 -3.7 23 8.8 NNE 13 13 7 7 1017.1 1016.1 0.0
26/08:00pm 18.3 14.7 -3.8 22 9.1 NNE 6 7 3 4 1017.2 1016.2 0.0
26/07:30pm 18.6 14.8 -3.5 22 9.2 NNE 7 9 4 5 1016.7 1015.7 0.0
26/07:00pm 20.0 15.4 -4.3 19 10.1 N 11 11 6 6 1016.4 1015.3 0.0
26/06:30pm 21.5 17.6 -4.5 17 10.9 NNE 7 9 4 5 1016.1 1015.0 0.0
26/06:00pm 23.8 19.5 -4.4 15 12.1 NNE 9 11 5 6 1015.9 1014.8 0.0
26/05:30pm 25.0 20.3 -5.3 13 12.9 NNE 11 15 6 8 1015.4 1014.4 0.0
26/05:00pm 25.5 20.8 -4.9 13 13.1 N 11 20 6 11 1015.4 1014.4 0.0
26/04:30pm 25.7 20.7 -4.7 13 13.2 NNE 13 20 7 11 1015.2 1014.2 0.0
26/04:00pm 25.8 20.8 -4.7 13 13.2 ENE 13 19 7 10 1015.1 1014.1 0.0
26/03:30pm 25.6 20.2 -4.8 13 13.1 NNE 15 24 8 13 1015.0 1014.0 0.0
26/03:00pm 25.6 20.5 -4.8 13 13.1 E 13 30 7 16 1015.1 1014.1 0.0
26/02:30pm 25.5 20.9 -3.9 14 12.9 ENE 11 22 6 12 1015.4 1014.4 0.0
26/02:00pm 24.5 19.8 -4.7 14 12.5 NE 11 22 6 12 1016.0 1014.9 0.0
26/01:30pm 24.1 19.9 -4.1 15 12.2 E 9 24 5 13 1016.6 1015.6 0.0
26/01:00pm 23.6 19.4 -3.7 16 11.8 NE 9 26 5 14 1017.1 1016.1 0.0
26/12:30pm 23.4 17.8 -3.0 17 11.6 NNE 17 28 9 15 1017.8 1016.8 0.0
26/12:00pm 22.8 17.2 -2.7 18 11.2 ENE 17 26 9 14 1018.4 1017.3 0.0
26/11:30am 22.3 16.8 -2.4 19 10.9 NE 17 28 9 15 1019.0 1018.0 0.0
26/11:00am 21.4 15.4 -1.8 21 10.2 ENE 20 32 11 17 1019.5 1018.5 0.0
26/10:30am 20.7 14.8 -1.1 23 9.7 E 20 33 11 18 1019.9 1018.9 0.0
26/10:00am 20.4 14.1 -0.8 24 9.4 E 22 32 12 17 1020.1 1019.1 0.0
26/09:30am 19.0 11.9 -0.9 26 8.8 E 26 37 14 20 1020.1 1019.1 0.0
26/09:00am 17.9 10.5 -0.8 28 8.1 E 28 37 15 20 1020.0 1019.0 0.0
26/08:30am 17.1 10.1 -0.6 30 7.7 E 26 37 14 20 1020.2 1019.2 0.0
26/08:00am 16.6 10.7 -0.6 31 7.4 E 20 30 11 16 1020.1 1019.1 0.0
26/07:30am 13.2 9.4 -0.8 38 5.9 SE 9 17 5 9 1020.0 1019.0 0.0
26/07:23am 13.0 9.6 -0.6 39 5.7 ESE 7 15 4 8 1019.8 1018.8 0.0
26/07:05am 8.0 5.0 -1.8 50 3.8 WSW 4 6 2 3 1019.6 1018.6 0.0
26/07:00am 7.6 4.6 -1.9 51 3.6 WSW 4 6 2 3 1019.6 1018.6 0.0
26/06:38am 6.4 3.0 -2.0 55 3.2 W 6 7 3 4 1019.6 1018.6 0.0
26/06:30am 6.1 2.5 -2.0 56 3.1 WSW 7 11 4 6 1019.4 1018.4 0.0
26/06:00am 6.3 2.9 -2.1 55 3.2 WSW 6 6 3 3 1019.1 1018.1 0.0
26/05:30am 6.5 3.1 -1.9 55 3.2 WSW 6 7 3 4 1019.0 1018.0 0.0
26/05:00am 7.3 4.0 -1.6 53 3.4 SW 6 7 3 4 1018.6 1017.6 0.0
26/04:30am 8.9 5.6 -1.5 48 4.1 SE 6 7 3 4 1018.2 1017.1 0.0
26/04:00am 10.9 7.3 -1.8 41 5.1 ESE 7 7 4 4 1018.1 1017.0 0.0
26/03:30am 13.1 9.2 -1.6 36 6.0 E 9 15 5 8 1017.8 1016.8 0.0
26/03:00am 12.2 8.8 -1.7 38 5.6 ENE 6 7 3 4 1018.1 1017.0 0.0
26/02:30am 12.5 9.6 -1.4 38 5.7 ENE 4 6 2 3 1018.3 1017.2 0.0
26/02:00am 14.9 11.0 -1.6 32 6.9 E 9 15 5 8 1018.5 1017.4 0.0
26/01:30am 15.4 11.5 -1.6 31 7.1 E 9 15 5 8 1018.7 1017.7 0.0
26/01:00am 15.6 11.3 -1.9 30 7.3 E 11 17 6 9 1018.7 1017.7 0.0
26/12:30am 15.5 11.2 -1.5 31 7.2 E 11 13 6 7 1018.9 1017.9 0.0
26/12:00am 16.1 11.8 -1.9 29 7.5 E 11 15 6 8 1019.3 1018.3 0.0
 
Date/Time
WST
Temp
°C
App
Temp
°C
Dew
Point
°C
Rel
Hum
%
Delta-T
°C
Wind Press
QNH
hPa
Press
MSL
hPa
Rain since
9am
mm
Dir  Spd
km/h
Gust
km/h
Spd
kts
Gust
kts
25/11:30pm 16.0 11.7 -2.0 29 7.5 E 11 15 6 8 1019.5 1018.5 0.0
25/11:00pm 15.8 11.8 -2.2 29 7.5 E 9 15 5 8 1019.6 1018.6 0.0
25/10:30pm 14.7 10.6 -2.7 30 7.1 E 9 13 5 7 1019.9 1018.9 0.0
25/10:00pm 14.9 11.2 -3.0 29 7.2 E 7 9 4 5 1019.9 1018.9 0.0
25/09:30pm 14.6 11.1 -2.8 30 7.1 ENE 6 7 3 4 1020.0 1019.0 0.0
25/09:00pm 15.5 12.4 -2.9 28 7.5 ENE 4 4 2 2 1019.9 1018.9 0.0
25/08:30pm 16.9 13.7 -3.2 25 8.3 ESE 4 6 2 3 1019.6 1018.6 0.0
25/08:06pm 17.5 13.9 -3.3 24 8.6 ESE 6 7 3 4 1019.3 1018.3 0.0
25/08:00pm 17.5 13.9 -3.3 24 8.6 ESE 6 7 3 4 1019.3 1018.3 0.0
25/07:40pm 18.6 14.8 -3.5 22 9.2 ESE 7 9 4 5 1019.1 1018.1 0.0
25/07:30pm 19.0 15.2 -3.8 21 9.5 ESE 7 9 4 5 1019.1 1018.1 0.0
25/07:00pm 20.0 16.4 -3.6 20 9.9 ESE 6 7 3 4 1018.8 1017.8 0.0
25/06:30pm 21.3 17.5 -4.0 18 10.7 ESE 7 9 4 5 1018.5 1017.4 0.0
25/06:00pm 22.3 18.1 -3.9 17 11.2 ESE 9 13 5 7 1018.1 1017.0 0.0
25/05:30pm 23.2 18.6 -4.0 16 11.7 E 11 17 6 9 1017.8 1016.8 0.0
25/05:00pm 23.7 18.3 -4.4 15 12.0 E 15 20 8 11 1017.6 1016.6 0.0
25/04:30pm 24.2 18.9 -4.0 15 12.2 ESE 15 39 8 21 1017.3 1016.3 0.0
25/04:00pm 24.3 18.6 -4.0 15 12.3 SE 17 26 9 14 1017.1 1016.1 0.0
25/03:30pm 23.8 17.6 -4.4 15 12.1 ESE 19 30 10 16 1017.2 1016.2 0.0
25/03:00pm 24.0 17.9 -4.2 15 12.1 ESE 19 30 10 16 1017.2 1016.2 0.0
25/02:30pm 23.6 16.5 -4.5 15 12.0 ESE 24 35 13 19 1017.5 1016.5 0.0
25/02:00pm 23.4 17.7 -3.8 16 11.7 ESE 17 30 9 16 1017.7 1016.7 0.0
25/01:30pm 23.1 17.0 -4.1 16 11.7 E 19 32 10 17 1017.9 1016.9 0.0
25/01:00pm 22.5 16.3 -3.0 18 11.1 ESE 20 33 11 18 1018.2 1017.1 0.0
25/12:30pm 22.5 16.5 -3.0 18 11.1 ESE 19 35 10 19 1018.6 1017.6 0.0
25/12:00pm 22.1 16.2 -2.6 19 10.8 ESE 19 28 10 15 1019.1 1018.1 0.0
25/11:30am 21.7 15.6 -2.2 20 10.5 ESE 20 32 11 17 1019.7 1018.7 0.0
25/11:00am 20.8 13.9 -2.3 21 10.0 ESE 24 37 13 20 1019.9 1018.9 0.0
25/10:30am 20.0 12.8 -1.7 23 9.5 E 26 39 14 21 1020.2 1019.2 0.0
25/10:00am 19.5 12.7 -1.6 24 9.2 ESE 24 33 13 18 1020.4 1019.4 0.0
25/09:30am 18.9 11.8 -1.5 25 8.9 E 26 37 14 20 1020.4 1019.4 0.0
25/09:00am 17.9 11.6 -0.8 28 8.1 ESE 22 32 12 17 1020.3 1019.3 0.0
25/08:30am 16.1 10.7 -1.0 31 7.3 ESE 17 28 9 15 1020.0 1019.0 0.0
25/08:00am 13.9 9.3 -1.3 35 6.3 SE 13 19 7 10 1019.9 1018.9 0.0
25/07:30am 10.1 6.7 -1.9 43 4.7 SSE 6 7 3 4 1020.0 1019.0 0.0
25/07:11am 8.8 5.4 -2.2 46 4.3 SSE 6 7 3 4 1019.7 1018.7 0.0
25/07:00am 8.2 4.8 -2.1 48 4.0 SSE 6 7 3 4 1019.7 1018.7 0.0
25/06:58am 7.9 4.5 -2.1 49 3.8 SSE 6 7 3 4 1019.6 1018.6 0.0
25/06:30am 5.8 2.7 -2.3 56 3.0 SE 4 6 2 3 1019.4 1018.4 0.0
25/06:00am 6.1 3.0 -2.5 54 3.2 SSW 4 7 2 4 1019.2 1018.2 0.0
25/05:30am 6.5 3.0 -2.6 52 3.4 S 6 7 3 4 1018.7 1017.7 0.0
25/05:00am 5.7 2.7 -2.1 57 2.9 SSE 4 6 2 3 1018.2 1017.1 0.0
25/04:30am 6.9 3.8 -2.5 51 3.5 SSE 4 6 2 3 1018.1 1017.0 0.0
25/04:00am 6.7 3.6 -2.4 52 3.4 SSE 4 6 2 3 1017.9 1016.9 0.0
25/03:30am 7.4 4.3 -2.6 49 3.8 SE 4 6 2 3 1017.7 1016.7 0.0
25/03:00am 8.7 6.0 -2.6 45 4.3 SSE 2 6 1 3 1017.7 1016.7 0.0
25/02:30am 8.2 5.1 -2.4 47 4.1 SSE 4 7 2 4 1017.7 1016.7 0.0
25/02:00am 9.3 6.6 -2.6 43 4.6 SE 2 4 1 2 1017.7 1016.7 0.0
25/01:30am 8.8 5.7 -2.5 45 4.3 SSW 4 7 2 4 1017.8 1016.8 0.0
25/01:00am 10.6 7.9 -2.4 40 5.1 SSE 2 6 1 3 1017.9 1016.9 0.0
25/12:30am 10.7 8.1 -2.0 41 5.0 S 2 4 1 2 1018.3 1017.2 0.0
25/12:00am 12.8 10.1 -2.3 35 6.1 ENE 2 4 1 2 1018.5 1017.4 0.0
 
Date/Time
WST
Temp
°C
App
Temp
°C
Dew
Point
°C
Rel
Hum
%
Delta-T
°C
Wind Press
QNH
hPa
Press
MSL
hPa
Rain since
9am
mm
Dir  Spd
km/h
Gust
km/h
Spd
kts
Gust
kts
24/11:30pm 12.7 9.3 -2.3 35 6.0 ENE 6 7 3 4 1018.5 1017.4 0.0
24/11:00pm 14.0 10.9 -2.4 32 6.7 E 4 6 2 3 1018.6 1017.6 0.0
24/10:30pm 14.1 10.6 -2.8 31 6.8 ESE 6 9 3 5 1018.7 1017.7 0.0
24/10:00pm 14.0 10.9 -2.8 31 6.8 ESE 4 6 2 3 1018.6 1017.6 0.0
24/09:30pm 15.3 11.8 -2.6 29 7.4 ESE 6 7 3 4 1018.6 1017.6 0.0
24/09:00pm 16.2 12.5 -2.8 27 7.8 ESE 7 11 4 6 1018.6 1017.6 0.0
24/08:30pm 16.2 13.1 -2.8 27 7.8 ESE 4 6 2 3 1018.6 1017.6 0.0
24/08:00pm 16.9 13.4 -3.2 25 8.3 SE 6 7 3 4 1018.5 1017.4 0.0

Other Formats:

Comma delimited format used in spreadsheet applications
http://www.bom.gov.au/fwo/IDW60801/IDW60801.99737.axf

JavaScript Object Notation format (JSON) in row-major order
http://www.bom.gov.au/fwo/IDW60801/IDW60801.99737.json